CDT,Max TemperatureF,Mean TemperatureF,Min TemperatureF,Max Dew PointF,MeanDew PointF,Min DewpointF,Max Humidity, Mean Humidity, Min Humidity, Max Sea Level PressureIn, Mean Sea Level PressureIn, Min Sea Level PressureIn, Max VisibilityMiles, Mean VisibilityMiles, Min VisibilityMiles, Max Wind SpeedMPH, Mean Wind SpeedMPH, Max Gust SpeedMPH,PrecipitationIn, CloudCover, Events, WindDirDegrees
2012-8-1,105,93,81,72,68,64,69,49,28,29.91,29.83,29.74,10,10,10,14,5,21,0.00,0,,149
2012-8-2,103,91,79,73,69,65,79,54,29,29.83,29.76,29.68,10,10,10,17,6,23,0.00,0,,156
2012-8-3,105,92,78,72,67,64,74,52,29,29.84,29.77,29.73,10,10,2,15,5,21,0.00,0,,160
2012-8-4,105,94,82,71,66,59,69,46,23,29.96,29.86,29.80,10,10,10,16,7,22,0.00,0,,199
2012-8-5,102,91,79,70,67,63,69,49,29,30.09,30.02,29.95,10,10,10,12,4,14,0.00,0,,62
2012-8-6,102,91,80,71,68,62,69,49,29,30.06,29.99,29.89,10,10,10,13,5,16,0.00,0,,71
2012-8-7,105,92,78,73,67,57,85,53,21,29.96,29.90,29.83,10,10,7,18,4,22,0.00,0,,87
2012-8-8,102,88,73,72,68,63,87,60,33,29.99,29.92,29.86,10,9,2,30,5,37,0.26,2,Rain,93
2012-8-9,99,85,71,70,66,61,87,58,29,29.96,29.85,29.76,10,10,9,20,6,25,0.01,0,,324
2012-8-10,96,84,71,65,54,41,69,42,15,29.96,29.89,29.84,10,10,10,20,9,25,0.00,0,,2
2012-8-11,91,78,65,60,53,46,68,46,23,30.03,29.96,29.90,10,10,10,13,4,22,0.00,0,,102
2012-8-12,96,84,71,67,62,57,73,53,33,29.99,29.90,29.82,10,10,10,12,6,16,0.00,1,Thunderstorm,93
2012-8-13,95,84,72,71,62,51,82,53,24,29.98,29.90,29.83,10,10,10,20,8,24,0.00,1,Thunderstorm,359
2012-8-14,90,77,64,62,58,53,87,58,29,30.03,29.95,29.87,10,10,1,15,5,17,0.00,0,,61
2012-8-15,99,86,73,69,63,58,64,48,31,29.94,29.89,29.81,10,10,1,14,5,17,0.00,2,,147
2012-8-16,101,89,76,70,67,61,76,53,29,29.96,29.91,29.82,10,10,10,25,8,35,0.05,1,Rain,192
2012-8-17,92,82,72,70,68,65,87,66,44,30.02,29.95,29.88,10,10,2,15,5,18,0.00,3,,68
2012-8-18,80,75,70,70,68,65,100,82,64,29.98,29.92,29.83,10,9,1,20,6,26,0.55,6,Rain-Thunderstorm,96
2012-8-19,87,77,66,68,66,62,90,69,48,29.97,29.92,29.86,10,7,0,20,4,25,0.07,6,Fog-Rain-Thunderstorm,315
2012-8-20,90,76,62,62,58,50,93,60,26,30.00,29.96,29.91,10,10,10,9,1,12,0.00,0,,81
2012-8-21,94,79,64,61,55,48,78,51,23,30.05,30.01,29.98,10,10,2,9,3,13,0.00,1,,77
2012-8-22,94,79,64,62,56,46,87,55,22,30.12,30.05,29.99,10,10,10,13,4,21,0.00,0,,154
2012-8-23,92,78,63,59,54,48,84,54,23,30.09,30.03,29.96,10,10,10,16,5,24,0.00,0,,110
2012-8-24,95,80,65,66,60,54,73,53,33,29.99,29.93,29.84,10,10,10,13,6,23,0.00,1,,109
2012-8-25,93,85,77,72,68,63,76,58,39,29.93,29.89,29.83,10,10,10,16,7,22,T,4,,137
2012-8-26,92,84,75,71,70,69,76,63,49,30.02,29.96,29.91,10,10,10,18,5,23,0.01,5,,207
2012-8-27,93,84,74,74,72,69,94,70,46,30.07,30.01,29.93,10,8,2,21,4,24,0.72,5,Rain,349
2012-8-28,95,83,71,72,60,48,87,54,20,30.05,29.97,29.89,10,10,10,20,8,25,0.00,0,,56
2012-8-29,97,80,63,60,56,53,81,53,24,29.96,29.89,29.79,10,10,2,20,7,25,0.00,0,,53
2012-8-30,97,84,71,70,63,55,82,58,33,29.85,29.79,29.71,10,10,6,31,15,41,0.01,3,Rain,61
2012-8-31,83,78,73,73,72,69,94,82,69,29.90,29.77,29.63,10,6,2,21,10,28,0.50,7,Rain,250